createdAt,value
2022-12-15T00:01:49.646Z,27.13
2022-12-15T00:04:06.791Z,31.67
2022-12-15T00:06:23.864Z,29.48
2022-12-15T00:08:41.139Z,30.98
2022-12-15T00:10:58.279Z,31.45
2022-12-15T00:13:15.345Z,28.98
2022-12-15T00:15:32.675Z,30.42
2022-12-15T00:17:49.901Z,29.30
2022-12-15T00:20:06.944Z,27.92
2022-12-15T00:22:23.942Z,33.72
2022-12-15T00:24:40.828Z,26.58
2022-12-15T00:26:57.774Z,28.55
2022-12-15T00:29:14.851Z,30.27
2022-12-15T00:31:32.010Z,29.70
2022-12-15T00:33:48.998Z,28.20
2022-12-15T00:36:06.067Z,27.90
2022-12-15T00:38:23.114Z,31.98
2022-12-15T00:40:40.449Z,33.88
2022-12-15T00:42:57.525Z,32.78
2022-12-15T00:45:14.628Z,32.53
2022-12-15T00:47:31.567Z,30.83
2022-12-15T00:49:49.863Z,31.20
2022-12-15T00:52:07.786Z,32.22
2022-12-15T00:54:24.740Z,30.70
2022-12-15T00:56:41.737Z,31.80
2022-12-15T00:58:58.868Z,31.08
2022-12-15T01:01:15.894Z,28.92
2022-12-15T01:03:33.537Z,30.70
2022-12-15T01:05:51.152Z,27.55
2022-12-15T01:08:08.226Z,28.92
2022-12-15T01:10:25.397Z,29.58
2022-12-15T01:12:42.483Z,29.20
2022-12-15T01:14:59.520Z,30.52
2022-12-15T01:17:16.463Z,28.73
2022-12-15T01:19:33.518Z,31.30
2022-12-15T01:21:50.735Z,28.50
2022-12-15T01:24:08.062Z,30.40
2022-12-15T01:26:25.149Z,29.45
2022-12-15T01:28:42.541Z,30.58
2022-12-15T01:30:59.836Z,29.98
2022-12-15T01:33:16.827Z,28.17
2022-12-15T01:35:33.911Z,30.20
2022-12-15T01:37:51.201Z,27.65
2022-12-15T01:40:08.267Z,28.27
2022-12-15T01:42:25.311Z,27.42
2022-12-15T01:44:42.667Z,31.65
2022-12-15T01:46:59.942Z,32.78
2022-12-15T01:49:16.930Z,28.80
2022-12-15T01:51:34.322Z,27.67
2022-12-15T01:53:52.286Z,28.65
2022-12-15T01:56:10.054Z,27.73
2022-12-15T01:58:28.310Z,29.20
2022-12-15T02:00:45.670Z,27.65
2022-12-15T02:03:03.164Z,30.27
2022-12-15T02:05:21.531Z,28.05
2022-12-15T02:07:38.635Z,30.80
2022-12-15T02:09:55.542Z,28.80
2022-12-15T02:12:13.529Z,29.40
2022-12-15T02:14:30.628Z,28.55
2022-12-15T02:16:47.624Z,32.20
2022-12-15T02:19:04.979Z,26.70
2022-12-15T02:21:22.242Z,31.70
2022-12-15T02:23:40.319Z,28.05
2022-12-15T02:25:57.560Z,26.92
2022-12-15T02:28:14.477Z,28.92
2022-12-15T02:30:33.001Z,29.65
2022-12-15T02:32:49.920Z,27.73
2022-12-15T02:35:06.879Z,29.67
2022-12-15T02:37:23.857Z,29.42
2022-12-15T02:39:41.164Z,27.48
2022-12-15T02:41:58.247Z,27.52
2022-12-15T02:44:15.301Z,27.75
2022-12-15T02:46:32.670Z,26.52
2022-12-15T02:48:49.668Z,28.90
2022-12-15T02:51:06.654Z,28.30
2022-12-15T02:53:24.013Z,30.27
2022-12-15T02:55:41.409Z,29.75
2022-12-15T02:57:58.319Z,28.63
2022-12-15T03:00:15.250Z,28.05
2022-12-15T03:02:32.312Z,29.83
2022-12-15T03:04:49.667Z,29.58
2022-12-15T03:07:06.680Z,28.30
2022-12-15T03:09:23.800Z,27.33
2022-12-15T03:11:41.877Z,27.38
2022-12-15T03:13:58.926Z,31.90
2022-12-15T03:16:16.018Z,28.38
2022-12-15T03:18:33.046Z,30.20
2022-12-15T03:20:49.879Z,28.60
2022-12-15T03:23:06.850Z,26.80
2022-12-15T03:30:21.141Z,28.75
2022-12-15T03:32:38.222Z,32.45
2022-12-15T03:34:55.145Z,26.95
2022-12-15T03:37:12.204Z,27.27
2022-12-15T03:39:29.212Z,30.55
2022-12-15T03:41:46.191Z,29.23
2022-12-15T03:44:04.471Z,27.80
2022-12-15T03:46:21.645Z,28.98
2022-12-15T03:48:39.715Z,27.15
2022-12-15T03:50:56.797Z,27.02
2022-12-15T03:53:14.103Z,31.15
2022-12-15T03:55:31.449Z,29.67
2022-12-15T03:57:48.505Z,27.00
2022-12-15T04:00:05.512Z,26.05
2022-12-15T04:02:22.531Z,28.05
2022-12-15T04:04:39.645Z,27.13
2022-12-15T04:06:56.954Z,26.08
2022-12-15T04:09:14.247Z,28.52
2022-12-15T04:11:32.251Z,31.35
2022-12-15T04:13:49.525Z,29.98
2022-12-15T04:16:07.827Z,30.80
2022-12-15T04:18:25.057Z,26.83
2022-12-15T04:20:41.966Z,29.83
2022-12-15T04:22:59.266Z,28.05
2022-12-15T04:25:16.584Z,26.02
2022-12-15T04:27:33.914Z,27.77
2022-12-15T04:29:50.963Z,31.27
2022-12-15T04:32:08.020Z,31.38
2022-12-15T04:34:26.374Z,26.20
2022-12-15T04:36:43.659Z,28.55
2022-12-15T04:39:00.910Z,29.92
2022-12-15T04:41:18.131Z,29.08
2022-12-15T04:43:35.193Z,30.08
2022-12-15T04:45:54.075Z,28.60
2022-12-15T04:48:11.127Z,28.27
2022-12-15T04:50:29.202Z,24.63
2022-12-15T04:52:46.550Z,28.00
2022-12-15T04:55:04.473Z,25.33
2022-12-15T04:57:21.770Z,28.17
2022-12-15T04:59:38.810Z,31.98
2022-12-15T05:01:56.219Z,25.70
2022-12-15T05:04:13.421Z,30.17
2022-12-15T05:06:30.828Z,27.77
2022-12-15T05:08:47.780Z,31.25
2022-12-15T05:11:07.617Z,28.38
2022-12-15T05:13:25.514Z,25.80
2022-12-15T05:15:42.809Z,32.78
2022-12-15T05:17:59.837Z,33.20
2022-12-15T05:20:17.036Z,28.85
2022-12-15T05:22:34.088Z,26.38
2022-12-15T05:24:51.384Z,29.50
2022-12-15T05:27:08.331Z,30.80
2022-12-15T05:29:26.613Z,28.23
2022-12-15T05:31:43.904Z,23.70
2022-12-15T05:34:05.067Z,29.35
2022-12-15T05:36:22.861Z,34.13
2022-12-15T05:38:39.970Z,29.38
2022-12-15T05:40:56.955Z,28.73
2022-12-15T05:43:13.997Z,27.95
2022-12-15T05:45:31.289Z,31.50
2022-12-15T05:47:48.426Z,31.73
2022-12-15T05:50:05.389Z,28.95
2022-12-15T05:52:22.482Z,28.35
2022-12-15T05:54:40.759Z,26.50
2022-12-15T05:56:58.093Z,25.40
2022-12-15T05:59:15.127Z,29.90
2022-12-15T06:01:32.144Z,29.02
2022-12-15T06:03:49.421Z,31.75
2022-12-15T06:06:06.778Z,28.67
2022-12-15T06:08:24.131Z,28.48
2022-12-15T06:10:41.115Z,30.33
2022-12-15T06:12:59.483Z,30.25
2022-12-15T06:15:16.440Z,30.73
2022-12-15T06:17:34.311Z,30.98
2022-12-15T06:19:51.401Z,27.75
2022-12-15T06:22:08.722Z,28.58
2022-12-15T06:24:27.174Z,28.83
2022-12-15T06:26:44.500Z,30.58
2022-12-15T06:29:01.441Z,46.65
2022-12-15T06:31:18.758Z,34.30
2022-12-15T06:33:37.101Z,33.20
2022-12-15T06:35:54.134Z,42.47
2022-12-15T06:38:11.236Z,50.78
2022-12-15T06:40:31.000Z,42.17
2022-12-15T06:42:50.723Z,34.60
2022-12-15T06:45:08.021Z,35.78
2022-12-15T06:47:25.286Z,35.65
2022-12-15T06:49:42.354Z,40.13
2022-12-15T06:51:59.299Z,33.20
2022-12-15T06:54:16.382Z,34.67
2022-12-15T06:56:34.695Z,39.65
2022-12-15T06:58:52.109Z,42.92
2022-12-15T07:01:09.395Z,35.70
2022-12-15T07:03:26.881Z,35.38
2022-12-15T07:05:44.027Z,32.80
2022-12-15T07:08:01.230Z,29.90
2022-12-15T07:10:18.670Z,33.20
2022-12-15T07:12:35.565Z,31.58
2022-12-15T07:14:53.671Z,29.02
2022-12-15T07:17:11.155Z,32.15
2022-12-15T07:19:28.313Z,33.22
2022-12-15T07:21:45.545Z,34.47
2022-12-15T07:24:03.080Z,33.28
2022-12-15T07:26:20.509Z,38.40
2022-12-15T07:28:37.593Z,35.83
2022-12-15T07:30:54.493Z,34.92
2022-12-15T07:33:11.570Z,36.45
2022-12-15T07:35:28.844Z,34.13
2022-12-15T07:37:45.745Z,34.30
2022-12-15T07:40:02.757Z,37.00
2022-12-15T07:42:19.825Z,36.90
2022-12-15T07:44:37.075Z,35.13
2022-12-15T07:46:54.020Z,34.92
2022-12-15T07:49:10.864Z,39.42
2022-12-15T07:51:27.837Z,37.75
2022-12-15T07:53:45.741Z,38.28
2022-12-15T07:56:08.073Z,39.05
2022-12-15T07:58:25.848Z,40.83
2022-12-15T08:00:48.668Z,37.55
2022-12-15T08:03:06.380Z,46.35
2022-12-15T08:05:42.474Z,63.45
2022-12-15T08:07:59.571Z,44.42
2022-12-15T08:10:16.478Z,38.65
2022-12-15T08:12:33.728Z,38.08
2022-12-15T08:14:50.760Z,48.50
2022-12-15T08:17:08.066Z,56.40
2022-12-15T08:19:25.015Z,50.28
2022-12-15T08:21:42.327Z,46.13
2022-12-15T08:24:01.194Z,43.72
2022-12-15T08:26:18.236Z,43.92
2022-12-15T08:28:35.165Z,42.25
2022-12-15T08:30:52.111Z,49.03
2022-12-15T08:33:10.380Z,44.88
2022-12-15T08:35:55.094Z,51.72
2022-12-15T08:38:05.843Z,40.65
2022-12-15T08:40:23.324Z,45.47
2022-12-15T08:42:40.667Z,43.25
2022-12-15T08:44:57.549Z,41.35
2022-12-15T08:47:14.531Z,43.38
2022-12-15T08:49:32.782Z,40.17
2022-12-15T08:51:50.102Z,41.90
2022-12-15T08:54:07.634Z,46.33
2022-12-15T08:56:24.916Z,50.63
2022-12-15T08:58:42.159Z,43.97
2022-12-15T09:00:59.197Z,39.63
2022-12-15T09:03:16.324Z,50.00
2022-12-15T09:05:33.347Z,43.50
2022-12-15T09:07:51.303Z,44.63
2022-12-15T09:10:08.339Z,40.72
2022-12-15T09:12:26.556Z,42.78
2022-12-15T09:14:43.403Z,45.95
2022-12-15T09:17:00.445Z,43.67
2022-12-15T09:19:17.442Z,47.80
2022-12-15T09:21:35.466Z,48.55
2022-12-15T09:23:52.552Z,46.80
2022-12-15T09:26:10.778Z,48.13
2022-12-15T09:28:28.936Z,50.95
2022-12-15T09:30:47.252Z,46.70
2022-12-15T09:33:04.239Z,50.33
2022-12-15T09:35:21.197Z,49.92
2022-12-15T09:37:38.433Z,51.22
2022-12-15T09:39:55.473Z,51.97
2022-12-15T09:42:12.496Z,61.42
2022-12-15T09:44:29.809Z,84.13
2022-12-15T09:46:49.874Z,71.43
2022-12-15T09:49:07.448Z,74.18
2022-12-15T09:51:24.841Z,61.90
2022-12-15T09:53:57.969Z,59.72
2022-12-15T09:56:15.503Z,54.85
2022-12-15T09:58:32.669Z,56.88
2022-12-15T10:00:52.643Z,58.15
2022-12-15T10:03:11.134Z,55.40
2022-12-15T10:05:50.001Z,59.70
2022-12-15T10:08:05.659Z,50.78
2022-12-15T10:10:22.677Z,54.05
2022-12-15T10:12:46.860Z,59.65
2022-12-15T10:15:12.768Z,59.47
2022-12-15T10:17:30.168Z,56.08
2022-12-15T10:22:24.696Z,56.58
2022-12-15T10:27:18.631Z,55.90
2022-12-15T10:29:35.745Z,53.22
2022-12-15T10:31:52.869Z,51.35
2022-12-15T10:34:11.973Z,52.42
2022-12-15T10:36:29.041Z,45.88
2022-12-15T10:38:46.065Z,48.22
2022-12-15T10:41:07.685Z,52.90
2022-12-15T10:43:25.980Z,56.30
2022-12-15T10:45:42.951Z,58.53
2022-12-15T10:47:59.991Z,55.80
2022-12-15T10:50:24.082Z,50.65
2022-12-15T10:52:41.668Z,50.10
2022-12-15T10:54:59.728Z,53.38
2022-12-15T10:57:17.021Z,49.72
2022-12-15T10:59:34.370Z,52.10
2022-12-15T11:01:52.621Z,52.05
2022-12-15T11:04:10.815Z,50.20
2022-12-15T11:06:28.220Z,49.30
2022-12-15T11:08:45.579Z,46.92
2022-12-15T11:11:07.668Z,54.08
2022-12-15T11:13:28.441Z,51.60
2022-12-15T11:15:50.758Z,49.00
2022-12-15T11:18:07.977Z,53.40
2022-12-15T11:20:25.130Z,56.05
2022-12-15T11:22:43.051Z,49.42
2022-12-15T11:25:00.011Z,50.25
2022-12-15T11:27:17.061Z,49.08
2022-12-15T11:29:34.076Z,46.38
2022-12-15T11:31:51.197Z,43.75
2022-12-15T11:34:08.208Z,45.97
2022-12-15T11:36:26.481Z,44.08
2022-12-15T11:38:43.860Z,43.50
2022-12-15T11:41:01.206Z,48.05
2022-12-15T11:43:18.102Z,45.72
2022-12-15T11:45:35.083Z,41.00
2022-12-15T11:47:52.397Z,48.72
2022-12-15T11:50:09.500Z,44.45
2022-12-15T11:52:26.561Z,43.03
2022-12-15T11:54:44.877Z,42.92
2022-12-15T11:57:02.451Z,39.08
2022-12-15T11:59:19.793Z,42.67
2022-12-15T12:01:36.886Z,43.72
2022-12-15T12:03:54.035Z,43.75
2022-12-15T12:06:11.145Z,44.17
2022-12-15T12:08:28.903Z,44.33
2022-12-15T12:10:46.536Z,59.60
2022-12-15T12:13:05.538Z,56.33
2022-12-15T12:15:22.947Z,58.40
2022-12-15T12:17:39.948Z,48.17
2022-12-15T12:19:57.782Z,49.30
2022-12-15T12:22:14.737Z,45.70
2022-12-15T12:24:31.732Z,48.47
2022-12-15T12:26:50.098Z,47.22
2022-12-15T12:29:07.333Z,47.10
2022-12-15T12:31:24.479Z,45.17
2022-12-15T12:33:41.626Z,47.40
2022-12-15T12:35:58.678Z,40.05
2022-12-15T12:38:17.032Z,39.72
2022-12-15T12:40:34.371Z,39.53
2022-12-15T12:42:51.356Z,46.63
2022-12-15T12:45:08.320Z,42.80
2022-12-15T12:47:25.597Z,36.95
2022-12-15T12:49:43.628Z,37.22
2022-12-15T12:52:00.972Z,36.28
2022-12-15T12:54:18.302Z,35.05
2022-12-15T12:56:36.254Z,39.33
2022-12-15T12:58:53.346Z,38.17
2022-12-15T13:01:10.542Z,36.65
2022-12-15T13:03:27.707Z,39.90
2022-12-15T13:05:44.706Z,40.40
2022-12-15T13:08:02.490Z,42.63
2022-12-15T13:10:20.803Z,41.17
2022-12-15T13:12:53.887Z,41.28
2022-12-15T13:15:12.334Z,39.33
2022-12-15T13:17:30.018Z,41.55
2022-12-15T13:19:52.108Z,40.42
2022-12-15T13:22:11.666Z,42.05
2022-12-15T13:24:28.951Z,37.13
2022-12-15T13:26:48.631Z,40.38
2022-12-15T13:29:05.894Z,40.67
2022-12-15T13:31:23.296Z,38.50
2022-12-15T13:33:40.720Z,42.63
2022-12-15T13:35:57.734Z,41.80
2022-12-15T13:38:17.246Z,40.47
2022-12-15T13:40:34.272Z,40.08
2022-12-15T13:42:58.075Z,44.15
2022-12-15T13:45:15.569Z,43.85
2022-12-15T13:47:32.891Z,44.72
2022-12-15T13:49:54.465Z,43.20
2022-12-15T13:52:16.282Z,42.50
2022-12-15T13:54:33.219Z,44.50
2022-12-15T13:56:50.862Z,45.10
2022-12-15T13:59:08.252Z,45.05
2022-12-15T14:01:30.159Z,46.70
2022-12-15T14:03:49.269Z,47.33
2022-12-15T14:06:08.207Z,43.03
2022-12-15T14:08:25.262Z,43.40
2022-12-15T14:10:42.610Z,39.28
2022-12-15T14:13:00.908Z,44.60
2022-12-15T14:15:17.881Z,44.20
2022-12-15T14:17:35.204Z,45.65
2022-12-15T14:19:52.511Z,40.85
2022-12-15T14:22:09.821Z,42.97
2022-12-15T14:24:42.266Z,45.38
2022-12-15T14:26:59.207Z,43.05
2022-12-15T14:29:16.278Z,39.67
2022-12-15T14:31:33.466Z,41.70
2022-12-15T14:33:50.921Z,48.53
2022-12-15T14:36:08.196Z,43.17
2022-12-15T14:38:25.897Z,41.22
2022-12-15T14:40:43.170Z,45.42
2022-12-15T14:43:00.568Z,45.75
2022-12-15T14:45:17.958Z,42.83
2022-12-15T14:47:35.947Z,45.38
2022-12-15T14:49:54.263Z,42.33
2022-12-15T14:52:12.312Z,42.38
2022-12-15T14:54:29.385Z,43.90
2022-12-15T14:56:46.738Z,41.13
2022-12-15T14:59:03.940Z,41.30
2022-12-15T15:01:21.264Z,42.58
2022-12-15T15:03:11.090Z,60.70
2022-12-15T15:03:38.376Z,39.92
2022-12-15T15:05:55.942Z,41.47
2022-12-15T15:08:13.329Z,39.35
2022-12-15T15:10:30.718Z,37.45
2022-12-15T15:12:47.679Z,44.15
2022-12-15T15:15:05.539Z,41.03
2022-12-15T15:17:22.878Z,43.45
2022-12-15T15:19:40.227Z,40.85
2022-12-15T15:21:57.532Z,41.38
2022-12-15T15:24:14.515Z,42.15
2022-12-15T15:26:31.535Z,43.38
2022-12-15T15:28:49.852Z,41.28
2022-12-15T15:31:06.876Z,43.95
2022-12-15T15:33:23.864Z,43.45
2022-12-15T15:35:40.760Z,41.70
2022-12-15T15:37:57.851Z,44.75
2022-12-15T15:40:14.788Z,39.22
2022-12-15T15:42:32.845Z,40.85
2022-12-15T15:44:50.026Z,38.85
2022-12-15T15:47:06.933Z,41.45
2022-12-15T15:49:23.973Z,40.45
2022-12-15T15:51:41.947Z,39.80
2022-12-15T15:53:59.243Z,40.92
2022-12-15T15:56:16.578Z,41.05
2022-12-15T15:58:34.071Z,38.90
2022-12-15T16:00:51.598Z,39.08
2022-12-15T16:03:09.138Z,38.40
2022-12-15T16:05:26.334Z,40.33
2022-12-15T16:07:43.694Z,38.75
2022-12-15T16:10:00.968Z,42.13
2022-12-15T16:12:18.960Z,46.08
2022-12-15T16:14:36.202Z,42.08
2022-12-15T16:16:53.206Z,48.20
2022-12-15T16:19:10.434Z,46.05
2022-12-15T16:21:27.678Z,45.50
2022-12-15T16:23:44.936Z,45.95
2022-12-15T16:26:02.252Z,44.55
2022-12-15T16:28:20.229Z,40.42
2022-12-15T16:30:37.177Z,44.03
2022-12-15T16:32:54.207Z,52.00
2022-12-15T16:35:12.520Z,52.17
2022-12-15T16:37:32.408Z,54.13
2022-12-15T16:39:51.801Z,50.45
2022-12-15T16:42:09.083Z,51.00
2022-12-15T16:44:26.104Z,46.30
2022-12-15T16:46:43.168Z,44.75
2022-12-15T16:49:00.508Z,42.05
2022-12-15T16:51:17.620Z,43.75
2022-12-15T16:53:34.858Z,45.03
2022-12-15T16:55:51.743Z,45.25
2022-12-15T16:58:08.747Z,45.38
2022-12-15T17:00:26.064Z,40.55
2022-12-15T17:02:43.232Z,39.78
2022-12-15T17:05:00.298Z,40.40
2022-12-15T17:07:20.385Z,43.25
2022-12-15T17:09:38.262Z,44.13
2022-12-15T17:11:55.491Z,39.78
2022-12-15T17:14:12.483Z,42.50
2022-12-15T17:16:29.580Z,43.15
2022-12-15T17:18:46.596Z,40.83
2022-12-15T17:21:03.525Z,41.40
2022-12-15T17:23:20.574Z,47.53
2022-12-15T17:26:17.999Z,42.15
2022-12-15T17:28:14.738Z,35.25
2022-12-15T17:30:31.763Z,35.35
2022-12-15T17:32:49.090Z,38.15
2022-12-15T17:35:06.333Z,38.42
2022-12-15T17:37:23.421Z,39.75
2022-12-15T17:39:40.513Z,41.20
2022-12-15T17:42:00.616Z,39.13
2022-12-15T17:44:36.235Z,40.60
2022-12-15T17:46:54.184Z,35.05
2022-12-15T17:49:11.229Z,30.58
2022-12-15T17:51:28.152Z,41.47
2022-12-15T17:53:45.104Z,49.15
2022-12-15T17:56:02.016Z,48.90
2022-12-15T17:58:18.965Z,53.42
2022-12-15T18:00:36.013Z,55.20
2022-12-15T18:02:54.005Z,54.63
2022-12-15T18:05:11.956Z,52.33
2022-12-15T18:07:28.899Z,49.22
2022-12-15T18:09:47.112Z,47.10
2022-12-15T18:12:03.979Z,44.58
2022-12-15T18:14:21.083Z,46.47
2022-12-15T18:16:38.117Z,39.55
2022-12-15T18:18:55.154Z,36.42
2022-12-15T18:21:12.395Z,36.03
2022-12-15T18:23:29.935Z,34.35
2022-12-15T18:25:47.155Z,37.83
2022-12-15T18:28:04.030Z,38.75
2022-12-15T18:30:21.011Z,39.28
2022-12-15T18:32:37.958Z,37.08
2022-12-15T18:34:55.225Z,43.00
2022-12-15T18:37:12.498Z,38.05
2022-12-15T18:39:29.776Z,39.03
2022-12-15T18:41:47.116Z,39.63
2022-12-15T18:44:04.175Z,40.58
2022-12-15T18:46:22.401Z,40.92
2022-12-15T18:48:39.714Z,38.53
2022-12-15T18:50:57.051Z,40.97
2022-12-15T18:53:14.234Z,36.38
2022-12-15T18:55:31.484Z,38.08
2022-12-15T18:57:49.487Z,37.60
2022-12-15T19:00:06.408Z,34.22
2022-12-15T19:02:23.493Z,37.90
2022-12-15T19:04:40.502Z,39.47
2022-12-15T19:06:57.762Z,35.53
2022-12-15T19:09:14.707Z,34.30
2022-12-15T19:11:32.524Z,42.90
2022-12-15T19:13:49.411Z,43.92
2022-12-15T19:16:06.518Z,40.40
2022-12-15T19:18:23.850Z,41.08
2022-12-15T19:20:41.147Z,41.45
2022-12-15T19:22:58.168Z,44.15
2022-12-15T19:25:15.014Z,39.00
2022-12-15T19:27:33.004Z,37.20
2022-12-15T19:29:50.256Z,41.75
2022-12-15T19:32:07.288Z,45.47
2022-12-15T19:34:24.227Z,42.15
2022-12-15T19:36:41.486Z,38.90
2022-12-15T19:38:58.520Z,40.03
2022-12-15T19:41:16.772Z,42.53
2022-12-15T19:43:33.924Z,41.92
2022-12-15T19:45:51.172Z,38.67
2022-12-15T19:48:08.104Z,42.35
2022-12-15T19:50:25.138Z,38.20
2022-12-15T19:52:42.139Z,35.85
2022-12-15T19:54:59.447Z,41.53
2022-12-15T19:57:16.451Z,40.25
2022-12-15T19:59:33.711Z,37.75
2022-12-15T20:01:50.860Z,37.63
2022-12-15T20:04:08.982Z,40.78
2022-12-15T20:06:26.921Z,35.25
2022-12-15T20:08:43.912Z,43.78
2022-12-15T20:11:01.171Z,42.13
2022-12-15T20:13:18.254Z,44.35
2022-12-15T20:15:35.219Z,46.78
2022-12-15T20:17:52.207Z,43.47
2022-12-15T20:20:11.550Z,48.38
2022-12-15T20:22:28.673Z,44.13
2022-12-15T20:24:45.596Z,44.97
2022-12-15T20:27:04.998Z,43.92
2022-12-15T20:29:25.745Z,38.42
2022-12-15T20:31:43.113Z,38.60
2022-12-15T20:34:00.450Z,37.85
2022-12-15T20:36:17.545Z,35.80
2022-12-15T20:38:35.878Z,39.28
2022-12-15T20:40:52.759Z,39.28
2022-12-15T20:43:09.739Z,40.35
2022-12-15T20:45:26.720Z,39.63
2022-12-15T20:47:43.759Z,35.00
2022-12-15T20:50:00.804Z,40.42
2022-12-15T20:52:18.020Z,37.60
2022-12-15T20:54:35.265Z,35.53
2022-12-15T20:56:52.506Z,38.20
2022-12-15T20:59:09.469Z,43.78
2022-12-15T21:01:26.607Z,33.63
2022-12-15T21:03:43.582Z,35.53
2022-12-15T21:06:00.579Z,38.65
2022-12-15T21:08:17.925Z,34.40
2022-12-15T21:10:35.929Z,36.20
2022-12-15T21:12:52.868Z,38.33
2022-12-15T21:15:09.785Z,38.55
2022-12-15T21:17:27.023Z,35.25
2022-12-15T21:19:44.018Z,38.85
2022-12-15T21:22:00.933Z,37.20
2022-12-15T21:24:17.889Z,34.17
2022-12-15T21:26:35.835Z,36.65
2022-12-15T21:28:52.751Z,32.92
2022-12-15T21:31:10.524Z,35.05
2022-12-15T21:33:27.473Z,35.13
2022-12-15T21:35:44.518Z,33.53
2022-12-15T21:38:01.442Z,37.47
2022-12-15T21:40:18.398Z,33.35
2022-12-15T21:42:35.442Z,37.75
2022-12-15T21:44:52.776Z,35.50
2022-12-15T21:47:09.775Z,38.72
2022-12-15T21:49:26.707Z,33.38
2022-12-15T21:51:43.685Z,35.20
2022-12-15T21:54:00.959Z,34.50
2022-12-15T21:56:18.915Z,37.78
2022-12-15T21:58:36.084Z,33.33
2022-12-15T22:00:53.142Z,35.88
2022-12-15T22:03:11.597Z,34.72
2022-12-15T22:05:28.510Z,32.22
2022-12-15T22:07:45.507Z,36.55
2022-12-15T22:10:02.456Z,33.30
2022-12-15T22:12:19.438Z,32.95
2022-12-15T22:14:37.429Z,37.13
2022-12-15T22:16:54.436Z,30.67
2022-12-15T22:19:11.867Z,36.22
2022-12-15T22:21:29.139Z,29.83
2022-12-15T22:23:46.206Z,35.55
2022-12-15T22:26:03.117Z,35.28
2022-12-15T22:28:20.107Z,34.00
2022-12-15T22:30:37.061Z,34.22
2022-12-15T22:32:54.285Z,36.08
2022-12-15T22:35:11.525Z,36.35
2022-12-15T22:37:28.481Z,36.75
2022-12-15T22:39:45.529Z,38.38
2022-12-15T22:42:02.530Z,36.28
2022-12-15T22:44:19.515Z,38.60
2022-12-15T22:46:36.603Z,38.83
2022-12-15T22:48:54.778Z,33.50
2022-12-15T22:51:11.900Z,34.80
2022-12-15T22:53:29.225Z,35.05
2022-12-15T22:55:47.236Z,36.70
2022-12-15T22:58:04.203Z,39.00
2022-12-15T23:00:21.130Z,31.90
2022-12-15T23:02:38.531Z,34.80
2022-12-15T23:04:55.678Z,32.28
2022-12-15T23:07:12.656Z,33.00
2022-12-15T23:09:29.704Z,33.13
2022-12-15T23:11:46.958Z,33.40
2022-12-15T23:14:04.009Z,31.80
2022-12-15T23:16:21.413Z,37.67
2022-12-15T23:18:38.974Z,35.55
2022-12-15T23:20:56.489Z,33.47
2022-12-15T23:23:13.446Z,34.25
2022-12-15T23:25:30.922Z,29.77
2022-12-15T23:27:47.851Z,34.28
2022-12-15T23:30:05.127Z,34.38
2022-12-15T23:32:22.046Z,31.00
2022-12-15T23:34:39.063Z,34.78
2022-12-15T23:36:56.142Z,34.13
2022-12-15T23:39:14.396Z,30.65
2022-12-15T23:41:31.379Z,34.55
2022-12-15T23:43:49.677Z,32.15
2022-12-15T23:46:07.082Z,31.05
2022-12-15T23:48:25.344Z,32.90
2022-12-15T23:50:42.229Z,31.30
2022-12-15T23:52:59.171Z,31.90
2022-12-15T23:55:16.584Z,30.48
2022-12-15T23:57:33.572Z,33.25
2022-12-15T23:59:50.694Z,30.80
